Agate, Nebraska
Current Conditions -  °F | °C
As of 7:53 PM on Wednesday 22 Oct 2014 (Local Time) from KTOR Reporting Station
Clear Clear  
Wind Chill: 55°   Ceiling: Unl
Heat Index: 55°   Visibility: 10mi
Dew Point: 18°   Wind: 9mph
Humidity: 23%   Direction: 320°NW
Pressure: 30.07"   Gusts: NA
Location:  42.42°N, 103.79°W
Report Text: KTOR 230153Z AUTO 32008KT 10SM CLR 13/M08 A3007 RMK AO2 SLP163 T01281078
Loading
Personal Weather Stations






























Interactive Weather Map New forecast layout! Learn more

10-Day Weather Forecast

Advertisements
Track Severe Weather on mobile